createdAt,value
2017-11-01T00:02:25.825Z,101210
2017-11-01T00:07:29.030Z,101214
2017-11-01T00:12:32.243Z,101219
2017-11-01T00:17:35.538Z,101229
2017-11-01T00:22:38.845Z,101232
2017-11-01T00:27:42.008Z,101224
2017-11-01T00:32:45.280Z,101217
2017-11-01T00:37:48.467Z,101220
2017-11-01T00:42:51.914Z,101202
2017-11-01T00:47:55.868Z,101210
2017-11-01T00:52:59.087Z,101196
2017-11-01T00:58:02.274Z,101198
2017-11-01T01:03:05.527Z,101188
2017-11-01T01:08:08.727Z,101186
2017-11-01T01:13:11.903Z,101188
2017-11-01T01:18:15.109Z,101186
2017-11-01T01:23:18.291Z,101178
2017-11-01T01:28:22.258Z,101168
2017-11-01T01:33:25.466Z,101172
2017-11-01T01:38:28.648Z,101171
2017-11-01T01:43:31.861Z,101167
2017-11-01T01:48:35.223Z,101157
2017-11-01T01:53:38.398Z,101150
2017-11-01T01:58:41.583Z,101158
2017-11-01T02:03:44.760Z,101146
2017-11-01T02:08:48.706Z,101143
2017-11-01T02:13:51.894Z,101152
2017-11-01T02:18:55.941Z,101154
2017-11-01T02:23:59.150Z,101148
2017-11-01T02:29:02.339Z,101133
2017-11-01T02:34:06.290Z,101128
2017-11-01T02:39:09.586Z,101132
2017-11-01T02:44:12.773Z,101137
2017-11-01T02:49:16.711Z,101129
2017-11-01T02:54:19.886Z,101126
2017-11-01T02:59:23.090Z,101130
2017-11-01T03:04:26.287Z,101135
2017-11-01T03:09:29.523Z,101126
2017-11-01T03:14:33.600Z,101124
2017-11-01T03:19:36.777Z,101114
2017-11-01T03:24:39.939Z,101105
2017-11-01T03:29:43.109Z,101093
2017-11-01T03:34:46.291Z,101084
2017-11-01T03:39:49.480Z,101101
2017-11-01T03:44:53.502Z,101080
2017-11-01T03:49:57.430Z,101086
2017-11-01T03:55:00.610Z,101096
2017-11-01T04:00:03.798Z,101082
2017-11-01T04:05:06.947Z,101081
2017-11-01T04:10:10.142Z,101093
2017-11-01T04:15:14.102Z,101079
2017-11-01T04:20:17.270Z,101082
2017-11-01T04:25:21.217Z,101085
2017-11-01T04:30:24.550Z,101086
2017-11-01T04:35:27.762Z,101078
2017-11-01T04:40:30.941Z,101074
2017-11-01T04:45:34.109Z,101067
2017-11-01T04:50:37.553Z,101077
2017-11-01T04:55:42.539Z,101084
2017-11-01T05:00:49.412Z,101084
2017-11-01T05:05:52.594Z,101093
2017-11-01T05:10:56.558Z,101100
2017-11-01T05:16:03.733Z,101099
2017-11-01T05:21:07.030Z,101091
2017-11-01T05:26:10.963Z,101090
2017-11-01T05:31:14.127Z,101095
2017-11-01T05:36:17.278Z,101090
2017-11-01T05:41:20.458Z,101086
2017-11-01T05:46:24.447Z,101087
2017-11-01T05:51:27.620Z,101080
2017-11-01T05:56:31.592Z,101085
2017-11-01T06:01:34.758Z,101081
2017-11-01T06:06:38.854Z,101090
2017-11-01T06:11:42.814Z,101106
2017-11-01T06:16:45.967Z,101106
2017-11-01T06:21:49.939Z,101105
2017-11-01T06:26:53.109Z,101101
2017-11-01T06:31:57.131Z,101105
2017-11-01T06:37:01.069Z,101100
2017-11-01T06:42:05.329Z,101116
2017-11-01T06:47:08.607Z,101119
2017-11-01T06:52:11.973Z,101133
2017-11-01T06:57:15.198Z,101123
2017-11-01T07:02:19.259Z,101124
2017-11-01T07:07:22.441Z,101138
2017-11-01T07:12:26.412Z,101149
2017-11-01T07:17:29.554Z,101145
2017-11-01T07:22:32.740Z,101156
2017-11-01T07:27:36.060Z,101159
2017-11-01T07:32:39.467Z,101166
2017-11-01T07:37:42.682Z,101152
2017-11-01T07:42:46.681Z,101154
2017-11-01T07:47:49.873Z,101152
2017-11-01T07:52:53.069Z,101145
2017-11-01T07:57:56.274Z,101146
2017-11-01T08:02:59.489Z,101162
2017-11-01T08:08:02.689Z,101156
2017-11-01T08:13:05.932Z,101149
2017-11-01T08:18:09.257Z,101159
2017-11-01T08:23:12.444Z,101165
2017-11-01T08:28:15.784Z,101173
2017-11-01T08:33:18.994Z,101170
2017-11-01T08:38:22.185Z,101153
2017-11-01T08:43:25.355Z,101157
2017-11-01T08:48:28.550Z,101148
2017-11-01T08:53:31.746Z,101143
2017-11-01T08:58:34.942Z,101145
2017-11-01T09:03:38.962Z,101151
2017-11-01T09:08:42.924Z,101152
2017-11-01T09:13:46.139Z,101151
2017-11-01T09:18:49.379Z,101151
2017-11-01T09:23:52.577Z,101139
2017-11-01T09:28:55.828Z,101145
2017-11-01T09:33:59.024Z,101139
2017-11-01T09:39:02.986Z,101141
2017-11-01T09:44:06.194Z,101132
2017-11-01T09:49:09.425Z,101138
2017-11-01T09:54:12.627Z,101134
2017-11-01T09:59:15.849Z,101138
2017-11-01T10:04:19.138Z,101134
2017-11-01T10:09:22.357Z,101139
2017-11-01T10:14:25.629Z,101138
2017-11-01T10:19:28.811Z,101132
2017-11-01T10:24:32.773Z,101130
2017-11-01T10:29:35.962Z,101128
2017-11-01T10:34:39.227Z,101126
2017-11-01T10:39:42.469Z,101119
2017-11-01T10:44:46.477Z,101109
2017-11-01T10:49:49.754Z,101105
2017-11-01T10:54:52.979Z,101100
2017-11-01T10:59:56.995Z,101081
2017-11-01T11:05:00.183Z,101090
2017-11-01T11:10:03.371Z,101083
2017-11-01T11:15:06.590Z,101076
2017-11-01T11:20:09.898Z,101066
2017-11-01T11:25:13.133Z,101054
2017-11-01T11:30:16.313Z,101051
2017-11-01T11:35:19.589Z,101044
2017-11-01T11:40:22.780Z,101035
2017-11-01T11:45:25.999Z,101034
2017-11-01T11:50:29.195Z,101042
2017-11-01T11:55:32.378Z,101038
2017-11-01T12:00:36.350Z,101024
2017-11-01T12:05:39.667Z,101016
2017-11-01T12:10:42.875Z,101032
2017-11-01T12:15:46.216Z,101019
2017-11-01T12:20:49.421Z,101026
2017-11-01T12:25:52.738Z,101021
2017-11-01T12:30:57.186Z,101013
2017-11-01T12:36:00.487Z,101005
2017-11-01T12:41:04.610Z,100985
2017-11-01T12:46:07.878Z,100984
2017-11-01T12:51:11.639Z,100976
2017-11-01T12:56:15.769Z,100966
2017-11-01T13:01:18.971Z,100961
2017-11-01T13:06:22.983Z,100957
2017-11-01T13:11:26.191Z,100945
2017-11-01T13:16:29.400Z,100940
2017-11-01T13:21:32.665Z,100945
2017-11-01T13:26:35.868Z,100941
2017-11-01T13:31:39.061Z,100940
2017-11-01T13:36:42.252Z,100944
2017-11-01T13:41:46.209Z,100941
2017-11-01T13:46:49.414Z,100939
2017-11-01T13:51:52.594Z,100936
2017-11-01T13:56:55.820Z,100929
2017-11-01T14:01:59.021Z,100926
2017-11-01T14:07:02.222Z,100914
2017-11-01T14:12:05.418Z,100913
2017-11-01T14:17:09.397Z,100925
2017-11-01T14:22:12.745Z,100924
2017-11-01T14:27:15.993Z,100923
2017-11-01T14:32:19.193Z,100920
2017-11-01T14:37:22.411Z,100904
2017-11-01T14:42:25.617Z,100911
2017-11-01T14:47:28.799Z,100888
2017-11-01T14:52:32.015Z,100879
2017-11-01T14:57:35.223Z,100883
2017-11-01T15:02:38.550Z,100872
2017-11-01T15:07:41.887Z,100873
2017-11-01T15:12:45.111Z,100880
2017-11-01T15:17:49.068Z,100875
2017-11-01T15:22:52.263Z,100878
2017-11-01T15:27:56.238Z,100879
2017-11-01T15:32:59.493Z,100872
2017-11-01T15:38:02.686Z,100867
2017-11-01T15:43:06.649Z,100877
2017-11-01T15:48:09.861Z,100875
2017-11-01T15:53:13.093Z,100863
2017-11-01T15:58:16.332Z,100850
2017-11-01T16:03:20.349Z,100851
2017-11-01T16:08:24.310Z,100861
2017-11-01T16:13:27.528Z,100851
2017-11-01T16:18:30.721Z,100859
2017-11-01T16:23:33.932Z,100850
2017-11-01T16:28:37.535Z,100847
2017-11-01T16:33:40.743Z,100849
2017-11-01T16:38:43.917Z,100849
2017-11-01T16:43:47.136Z,100861
2017-11-01T16:48:51.061Z,100859
2017-11-01T16:53:55.046Z,100867
2017-11-01T16:58:58.239Z,100858
2017-11-01T17:04:01.483Z,100857
2017-11-01T17:09:04.669Z,100851
2017-11-01T17:14:07.879Z,100851
2017-11-01T17:19:11.050Z,100845
2017-11-01T17:24:14.349Z,100844
2017-11-01T17:29:17.502Z,100837
2017-11-01T17:34:20.803Z,100826
2017-11-01T17:39:23.963Z,100837
2017-11-01T17:44:27.131Z,100820
2017-11-01T17:49:31.104Z,100818
2017-11-01T17:54:34.300Z,100815
2017-11-01T17:59:37.490Z,100813
2017-11-01T18:04:41.534Z,100808
2017-11-01T18:09:44.723Z,100801
2017-11-01T18:14:48.594Z,100802
2017-11-01T18:19:51.800Z,100810
2017-11-01T18:24:55.165Z,100800
2017-11-01T18:29:58.562Z,100799
2017-11-01T18:35:01.734Z,100792
2017-11-01T18:40:05.052Z,100790
2017-11-01T18:45:08.252Z,100782
2017-11-01T18:50:11.429Z,100792
2017-11-01T18:55:14.624Z,100770
2017-11-01T19:00:17.888Z,100770
2017-11-01T19:05:21.478Z,100753
2017-11-01T19:10:24.644Z,100748
2017-11-01T19:15:27.848Z,100770
2017-11-01T19:20:31.028Z,100753
2017-11-01T19:25:34.977Z,100759
2017-11-01T19:30:38.188Z,100754
2017-11-01T19:35:41.391Z,100749
2017-11-01T19:40:45.383Z,100746
2017-11-01T19:45:48.607Z,100745
2017-11-01T19:50:51.803Z,100739
2017-11-01T19:55:55.039Z,100746
2017-11-01T20:00:59.009Z,100731
2017-11-01T20:06:02.202Z,100735
2017-11-01T20:11:05.399Z,100734
2017-11-01T20:16:08.594Z,100730
2017-11-01T20:21:11.995Z,100722
2017-11-01T20:26:16.004Z,100728
2017-11-01T20:31:19.195Z,100726
2017-11-01T20:36:22.466Z,100718
2017-11-01T20:41:25.672Z,100717
2017-11-01T20:46:28.888Z,100721
2017-11-01T20:51:32.116Z,100719
2017-11-01T20:56:35.464Z,100717
2017-11-01T21:01:38.682Z,100717
2017-11-01T21:06:41.874Z,100707
2017-11-01T21:11:45.995Z,100702
2017-11-01T21:16:49.266Z,100688
2017-11-01T21:21:52.513Z,100683
2017-11-01T21:26:56.492Z,100676
2017-11-01T21:31:59.711Z,100671
2017-11-01T21:37:02.902Z,100659
2017-11-01T21:42:06.196Z,100655
2017-11-01T21:47:09.406Z,100651
2017-11-01T21:52:12.657Z,100630
2017-11-01T21:57:16.639Z,100640
2017-11-01T22:02:19.867Z,100628
2017-11-01T22:07:23.103Z,100629
2017-11-01T22:12:27.214Z,100629
2017-11-01T22:17:30.415Z,100618
2017-11-01T22:22:33.610Z,100619
2017-11-01T22:27:36.805Z,100619
2017-11-01T22:32:40.011Z,100618
2017-11-01T22:37:43.220Z,100611
2017-11-01T22:42:46.441Z,100610
2017-11-01T22:47:49.706Z,100609
2017-11-01T22:52:52.970Z,100606
2017-11-01T22:57:56.911Z,100596
2017-11-01T23:03:00.871Z,100599
2017-11-01T23:08:04.210Z,100600
2017-11-01T23:13:07.406Z,100583
2017-11-01T23:18:10.791Z,100591
2017-11-01T23:23:14.061Z,100577
2017-11-01T23:28:17.422Z,100569
2017-11-01T23:33:20.641Z,100567
2017-11-01T23:38:23.805Z,100553
2017-11-01T23:43:27.138Z,100548
2017-11-01T23:48:30.583Z,100552
2017-11-01T23:53:33.779Z,100538
2017-11-01T23:58:37.158Z,100535
